Time;durP1;ratioP1;P1;durP2;ratioP2;P2;SDS_P1;SDS_P2;PMS_P1;PMS_P2;Temp;Humidity;BMP_temperature;BMP_pressure;BME280_temperature;BME280_humidity;BME280_pressure;Samples;Min_cycle;Max_cycle;Signal;HPM_P1;HPM_P2
2023/06/12 00:00:01;;;;;;;13.07;7.00;;;;;;;18.65;70.05;94100.38;4208714;28;20052;-57
2023/06/12 00:02:02;;;;;;;9.05;6.50;;;;;;;18.76;69.88;94099.63;4205391;28;20044;-59
2023/06/12 00:04:04;;;;;;;11.35;6.65;;;;;;;18.83;69.73;94104.88;4205402;28;20044;-58
2023/06/12 00:06:09;;;;;;;10.82;6.47;;;;;;;18.90;69.37;94099.47;4208301;28;20044;-56
2023/06/12 00:08:13;;;;;;;8.65;6.32;;;;;;;18.96;69.11;94103.88;4199358;28;20040;-58
2023/06/12 00:10:15;;;;;;;8.85;6.10;;;;;;;18.98;68.86;94102.63;4208237;28;20131;-57
2023/06/12 00:12:17;;;;;;;8.73;5.85;;;;;;;18.99;68.13;94103.41;4207111;28;20040;-58
2023/06/12 00:14:19;;;;;;;9.80;6.32;;;;;;;19.03;68.43;94107.25;4201557;28;20131;-57
2023/06/12 00:16:21;;;;;;;8.15;6.47;;;;;;;19.04;68.34;94106.22;4210299;28;20052;-57
2023/06/12 00:18:23;;;;;;;11.55;6.10;;;;;;;19.05;68.18;94112.34;4207245;28;20119;-57
2023/06/12 00:20:24;;;;;;;9.73;6.75;;;;;;;19.08;68.41;94109.22;4206036;28;20513;-58
2023/06/12 00:22:26;;;;;;;9.90;6.18;;;;;;;19.07;68.29;94112.91;4209462;28;20131;-57
2023/06/12 00:24:28;;;;;;;10.02;6.43;;;;;;;19.01;68.72;94104.84;4212403;28;20044;-57
2023/06/12 00:26:29;;;;;;;8.77;6.10;;;;;;;19.02;68.61;94103.78;4212309;28;20048;-57
2023/06/12 00:28:31;;;;;;;8.70;6.65;;;;;;;19.02;68.20;94092.38;4214038;28;20416;-59
2023/06/12 00:30:33;;;;;;;8.43;6.15;;;;;;;19.07;68.26;94094.34;4194635;28;20124;-58
2023/06/12 00:32:35;;;;;;;9.27;5.85;;;;;;;19.07;67.94;94095.13;4212789;28;20619;-57
2023/06/12 00:34:37;;;;;;;8.68;6.57;;;;;;;19.03;68.67;94091.31;4205706;28;20056;-57
2023/06/12 00:36:39;;;;;;;8.85;6.38;;;;;;;19.05;68.25;94091.09;4209680;28;20130;-59
2023/06/12 00:38:40;;;;;;;11.20;6.60;;;;;;;19.07;67.90;94103.09;4212263;28;20055;-57
2023/06/12 00:40:42;;;;;;;9.10;5.65;;;;;;;19.09;67.96;94098.38;4213769;28;20048;-59
2023/06/12 00:42:47;;;;;;;8.95;5.85;;;;;;;19.13;67.93;94104.06;4210942;28;20385;-58
2023/06/12 00:44:48;;;;;;;10.50;6.30;;;;;;;19.16;67.89;94101.72;4204300;28;20043;-59
2023/06/12 00:46:50;;;;;;;6.80;6.10;;;;;;;19.15;67.88;94102.78;4213031;28;20052;-59
2023/06/12 00:48:52;;;;;;;8.50;6.03;;;;;;;19.11;67.61;94101.63;4204045;28;20079;-56
2023/06/12 00:50:56;;;;;;;10.13;5.90;;;;;;;19.14;67.90;94100.34;4202711;28;20083;-57
2023/06/12 00:52:59;;;;;;;11.02;5.70;;;;;;;19.14;67.70;94111.78;4201075;28;20153;-54
2023/06/12 00:55:02;;;;;;;7.30;5.80;;;;;;;19.17;67.23;94105.22;4212129;28;20519;-59
2023/06/12 00:57:07;;;;;;;7.77;6.17;;;;;;;19.16;67.33;94101.72;4212966;28;20132;-56
2023/06/12 00:59:09;;;;;;;11.75;6.47;;;;;;;19.15;67.53;94100.13;4210375;28;20052;-59
2023/06/12 01:01:11;;;;;;;9.65;6.30;;;;;;;19.15;67.24;94099.31;4203551;28;20044;-58
2023/06/12 01:03:13;;;;;;;11.45;6.18;;;;;;;19.12;67.89;94102.41;4202784;28;20059;-58
2023/06/12 01:05:22;;;;;;;12.48;6.55;;;;;;;19.12;67.64;94095.28;4203264;28;20045;-57
2023/06/12 01:07:41;;;;;;;10.10;5.88;;;;;;;19.13;67.64;94094.25;4204906;28;20040;-56
2023/06/12 01:09:48;;;;;;;12.40;6.57;;;;;;;19.13;67.67;94094.25;4211049;28;20056;-56
2023/06/12 01:11:52;;;;;;;7.00;6.30;;;;;;;19.08;67.92;94094.13;4199571;28;20059;-58
2023/06/12 01:13:54;;;;;;;8.88;6.88;;;;;;;18.98;68.28;94092.00;4212688;28;20423;-58
2023/06/12 01:15:56;;;;;;;9.45;6.47;;;;;;;18.91;68.41;94093.13;4212020;28;20131;-59
2023/06/12 01:17:58;;;;;;;10.63;6.60;;;;;;;18.89;69.00;94087.25;4211059;28;20044;-58
2023/06/12 01:20:11;;;;;;;9.15;6.57;;;;;;;18.91;69.24;94093.13;4212137;28;20047;-57
2023/06/12 01:22:16;;;;;;;12.65;6.40;;;;;;;18.89;68.89;94088.03;4207509;28;20082;-56
2023/06/12 01:24:48;;;;;;;10.52;6.10;;;;;;;18.89;69.33;94087.25;4208201;28;20051;-57
2023/06/12 01:26:59;;;;;;;9.15;6.38;;;;;;;18.90;69.26;94088.84;4205550;28;20074;-56
2023/06/12 01:29:38;;;;;;;8.32;6.38;;;;;;;18.86;68.97;94095.63;4211494;28;20074;-59
2023/06/12 01:32:05;;;;;;;8.02;6.43;;;;;;;18.78;69.29;94092.28;4212746;28;20056;-59
2023/06/12 01:34:16;;;;;;;11.93;6.70;;;;;;;18.81;69.57;94094.47;4209337;28;20055;-58
2023/06/12 01:36:19;;;;;;;8.50;6.32;;;;;;;18.81;69.27;94099.78;4212600;28;20245;-60
2023/06/12 01:38:22;;;;;;;9.75;6.25;;;;;;;18.86;69.12;94093.78;4210116;28;20036;-59
2023/06/12 01:40:26;;;;;;;8.50;6.22;;;;;;;18.91;68.71;94095.78;4210496;28;20048;-59
2023/06/12 01:42:28;;;;;;;7.68;6.35;;;;;;;18.96;68.44;94093.25;4211462;28;20136;-57
2023/06/12 01:44:32;;;;;;;9.15;6.47;;;;;;;18.98;67.97;94092.00;4211087;28;20064;-57
2023/06/12 01:46:34;;;;;;;;;;;;;;;19.01;68.00;94094.22;4210737;28;20081;-58
2023/06/12 01:48:38;;;;;;;9.90;6.18;;;;;;;19.02;67.78;94089.72;4211387;28;19999;-56
2023/06/12 01:50:40;;;;;;;8.75;6.43;;;;;;;19.04;67.61;94090.28;4210915;28;20078;-55
2023/06/12 01:52:43;;;;;;;12.45;6.88;;;;;;;19.07;67.69;94094.34;4207252;28;20047;-57
2023/06/12 01:54:48;;;;;;;9.87;6.80;;;;;;;19.07;68.00;94092.47;4211139;28;20128;-59
2023/06/12 01:56:50;;;;;;;8.55;6.55;;;;;;;19.05;68.69;94096.41;4208250;28;20045;-58
2023/06/12 01:58:53;;;;;;;9.98;7.13;;;;;;;19.03;68.62;94093.97;4196564;28;20470;-58
2023/06/12 02:00:55;;;;;;;12.05;6.47;;;;;;;18.92;68.64;94098.19;4205599;28;20052;-59
2023/06/12 02:02:57;;;;;;;10.93;7.60;;;;;;;18.42;69.85;94104.50;4211293;28;20051;-57
2023/06/12 02:04:59;;;;;;;15.98;7.72;;;;;;;18.02;71.33;94101.47;4211187;28;20048;-56
2023/06/12 02:07:01;;;;;;;10.57;7.03;;;;;;;17.87;71.83;94107.13;4209705;28;20075;-56
2023/06/12 02:09:03;;;;;;;15.27;10.60;;;;;;;17.80;72.13;94103.72;4197852;28;20147;-55
2023/06/12 02:11:04;;;;;;;11.43;6.70;;;;;;;17.88;72.11;94103.47;4206743;28;20305;-57
2023/06/12 02:13:06;;;;;;;11.20;7.40;;;;;;;17.75;71.99;94098.25;4211940;28;20062;-56
2023/06/12 02:15:09;;;;;;;15.48;10.15;;;;;;;17.79;72.43;94100.25;4206726;28;20081;-58
2023/06/12 02:17:13;;;;;;;14.50;10.23;;;;;;;17.94;72.29;94097.28;4205033;28;20106;-59
2023/06/12 02:19:15;;;;;;;9.02;7.13;;;;;;;17.90;71.60;94103.25;4203058;28;20127;-58
2023/06/12 02:21:17;;;;;;;10.05;7.38;;;;;;;17.78;72.26;94108.41;4206914;28;20051;-57
2023/06/12 02:23:19;;;;;;;9.95;7.22;;;;;;;17.68;72.99;94100.97;4210390;28;20136;-56
2023/06/12 02:25:20;;;;;;;7.85;6.40;;;;;;;17.82;72.82;94112.28;4211172;28;20093;-58
2023/06/12 02:27:23;;;;;;;10.45;6.28;;;;;;;17.96;71.89;94111.13;4210673;28;20556;-57
2023/06/12 02:29:24;;;;;;;11.20;6.20;;;;;;;18.12;71.53;94112.38;4210711;28;20135;-59
2023/06/12 02:31:27;;;;;;;11.15;6.20;;;;;;;18.25;70.81;94113.28;4209076;28;20090;-56
2023/06/12 02:33:30;;;;;;;9.98;6.70;;;;;;;18.37;70.63;94108.88;4210671;28;20059;-55
2023/06/12 02:35:31;;;;;;;7.72;6.32;;;;;;;18.44;70.32;94109.59;4210316;28;20087;-58
2023/06/12 02:37:33;;;;;;;11.73;6.97;;;;;;;18.50;69.90;94111.38;4211194;28;20105;-58
2023/06/12 02:39:35;;;;;;;8.43;6.00;;;;;;;18.56;69.66;94113.13;4209024;28;20044;-58
2023/06/12 02:41:37;;;;;;;8.30;6.55;;;;;;;18.62;69.36;94114.06;4209116;28;20111;-59
2023/06/12 02:43:38;;;;;;;8.10;6.40;;;;;;;18.68;69.03;94118.50;4210791;28;20078;-58
2023/06/12 02:45:40;;;;;;;9.40;6.85;;;;;;;18.71;69.03;94115.38;4204859;28;20110;-58
2023/06/12 02:47:42;;;;;;;7.30;6.50;;;;;;;18.76;68.89;94115.53;4206511;28;20098;-58
2023/06/12 02:49:44;;;;;;;7.97;6.32;;;;;;;18.78;68.92;94113.50;4204251;28;20075;-60
2023/06/12 02:51:46;;;;;;;8.90;6.72;;;;;;;18.80;68.58;94119.41;4205799;28;20051;-59
2023/06/12 02:53:48;;;;;;;12.55;6.45;;;;;;;18.81;68.47;94123.66;4205113;28;20106;-59
2023/06/12 02:55:51;;;;;;;9.10;6.90;;;;;;;18.81;68.55;94134.28;4204841;28;20112;-58
2023/06/12 02:57:53;;;;;;;12.20;6.82;;;;;;;18.85;68.67;94131.19;4203293;28;20093;-59
2023/06/12 02:59:54;;;;;;;11.00;6.78;;;;;;;18.74;69.19;94138.84;4210194;28;20469;-61
2023/06/12 03:01:56;;;;;;;10.48;7.53;;;;;;;18.70;69.70;94137.66;4210430;28;20105;-57
2023/06/12 03:03:58;;;;;;;9.95;7.65;;;;;;;18.65;69.73;94140.19;4209048;28;20058;-59
2023/06/12 03:06:00;;;;;;;11.23;6.82;;;;;;;18.65;69.96;94132.22;4210721;28;20043;-57
2023/06/12 03:08:05;;;;;;;16.13;7.35;;;;;;;18.68;69.86;94134.41;4210070;28;20086;-57
2023/06/12 03:10:08;;;;;;;11.75;7.65;;;;;;;18.72;69.60;94132.13;4209858;28;20412;-55
2023/06/12 03:12:10;;;;;;;10.40;7.03;;;;;;;18.75;68.93;94134.31;4210159;28;20043;-58
2023/06/12 03:14:14;;;;;;;9.07;6.65;;;;;;;18.82;68.88;94138.56;4210905;28;20048;-59
2023/06/12 03:16:20;;;;;;;12.63;7.88;;;;;;;18.79;69.15;94141.66;4199194;28;20509;-59
2023/06/12 03:18:24;;;;;;;15.27;7.68;;;;;;;18.75;69.63;94140.44;4207512;28;20460;-56
2023/06/12 03:20:26;;;;;;;10.80;7.72;;;;;;;18.77;69.21;94143.69;4192824;28;20044;-60
2023/06/12 03:22:28;;;;;;;11.43;7.78;;;;;;;18.78;69.35;94149.84;4204277;28;20200;-59
2023/06/12 03:24:29;;;;;;;11.98;7.82;;;;;;;18.78;69.91;94145.34;4197251;28;20062;-57
2023/06/12 03:26:32;;;;;;;15.95;7.18;;;;;;;18.81;69.63;94144.88;4203103;28;20104;-57
2023/06/12 03:28:34;;;;;;;11.63;7.63;;;;;;;18.86;69.33;94141.56;4211351;28;20052;-58
2023/06/12 03:30:36;;;;;;;9.43;7.47;;;;;;;18.88;69.43;94141.34;4210661;28;20127;-58
2023/06/12 03:32:38;;;;;;;10.52;7.43;;;;;;;18.90;69.51;94139.28;4211023;28;20510;-60
2023/06/12 03:34:39;;;;;;;12.80;7.57;;;;;;;18.95;69.15;94140.22;4209984;28;20139;-59
2023/06/12 03:36:43;;;;;;;12.10;7.90;;;;;;;19.00;68.90;94134.25;4209554;28;20047;-59
2023/06/12 03:38:45;;;;;;;17.20;8.25;;;;;;;19.05;68.50;94131.72;4208478;28;20071;-57
2023/06/12 03:40:50;;;;;;;13.32;8.00;;;;;;;19.06;68.62;94135.19;4204959;28;20118;-58
2023/06/12 03:42:51;;;;;;;15.93;8.27;;;;;;;18.79;69.45;94136.34;4205015;28;20047;-57
2023/06/12 03:44:53;;;;;;;13.27;7.95;;;;;;;18.62;70.40;94135.28;4202866;28;20168;-59
2023/06/12 03:46:55;;;;;;;10.90;8.00;;;;;;;18.63;70.63;94139.59;4200874;28;20044;-61
2023/06/12 03:48:57;;;;;;;12.18;8.48;;;;;;;18.68;70.21;94141.56;4209090;28;20048;-61
2023/06/12 03:50:58;;;;;;;12.68;8.25;;;;;;;18.73;70.34;94137.19;4210446;28;20413;-57
2023/06/12 03:53:00;;;;;;;12.15;8.68;;;;;;;18.82;70.34;94132.41;4205845;28;20615;-58
2023/06/12 03:55:02;;;;;;;13.57;8.90;;;;;;;18.60;70.14;94130.19;4210412;28;20501;-59
2023/06/12 03:57:04;;;;;;;10.45;8.07;;;;;;;18.65;70.68;94121.59;4210419;28;20393;-60
2023/06/12 03:59:05;;;;;;;13.52;8.80;;;;;;;18.76;70.46;94126.16;4213850;28;20040;-56
2023/06/12 04:01:07;;;;;;;18.75;9.15;;;;;;;18.89;70.08;94125.19;4207647;28;20055;-61
2023/06/12 04:03:09;;;;;;;15.75;8.70;;;;;;;18.81;70.13;94134.28;4212909;28;20082;-62
2023/06/12 04:05:11;;;;;;;12.57;8.65;;;;;;;18.78;70.37;94129.44;4212877;28;20098;-57
2023/06/12 04:07:14;;;;;;;13.00;9.43;;;;;;;18.59;69.87;94130.44;4213172;28;20048;-58
2023/06/12 04:09:16;;;;;;;11.07;8.60;;;;;;;18.30;70.99;94137.28;4206785;28;20436;-59
2023/06/12 04:11:19;;;;;;;14.23;8.68;;;;;;;18.05;72.21;94130.22;4208583;28;20077;-60
2023/06/12 04:13:20;;;;;;;11.27;8.77;;;;;;;18.18;72.30;94126.63;4212674;28;20574;-59
2023/06/12 04:15:22;;;;;;;15.73;9.23;;;;;;;18.22;71.86;94133.09;4209929;28;20044;-59
2023/06/12 04:17:24;;;;;;;10.55;8.27;;;;;;;18.33;71.46;94137.66;4205571;28;20048;-59
2023/06/12 04:19:26;;;;;;;13.52;9.50;;;;;;;18.41;71.48;94139.19;4213030;28;20059;-57
2023/06/12 04:21:28;;;;;;;10.52;8.93;;;;;;;18.50;71.01;94132.59;4213139;28;20073;-59
2023/06/12 04:23:30;;;;;;;17.13;9.27;;;;;;;18.49;70.06;94135.47;4212725;28;20055;-60
2023/06/12 04:25:36;;;;;;;13.68;9.35;;;;;;;18.44;70.79;94140.63;4213500;28;20062;-56
2023/06/12 04:27:40;;;;;;;11.93;9.02;;;;;;;18.58;70.52;94134.94;4210439;28;20075;-59
2023/06/12 04:29:42;;;;;;;10.80;8.20;;;;;;;18.76;70.37;94130.66;4212582;28;20055;-59
2023/06/12 04:31:44;;;;;;;11.25;8.27;;;;;;;18.95;69.12;94128.78;4213678;28;20468;-60
2023/06/12 04:33:48;;;;;;;11.00;8.95;;;;;;;19.14;68.64;94127.69;4210474;28;20059;-61
2023/06/12 04:35:50;;;;;;;;;;;;;;;19.29;67.84;94129.94;4211789;28;20052;-60
2023/06/12 04:37:52;;;;;;;10.10;8.57;;;;;;;19.44;67.32;94133.00;4209871;28;19919;-62
2023/06/12 04:39:55;;;;;;;14.80;9.70;;;;;;;19.56;66.88;94126.91;4212094;28;20075;-61
2023/06/12 04:41:57;;;;;;;14.98;8.10;;;;;;;19.65;66.42;94128.19;4213560;28;20052;-60
2023/06/12 04:43:59;;;;;;;14.65;8.40;;;;;;;19.83;66.23;94133.44;4212073;28;20055;-57
2023/06/12 04:46:01;;;;;;;13.75;8.40;;;;;;;19.97;65.90;94120.72;4213401;28;20125;-62
2023/06/12 04:48:03;;;;;;;11.38;8.80;;;;;;;20.04;65.27;94123.25;4212769;28;20060;-57
2023/06/12 04:50:08;;;;;;;14.43;9.57;;;;;;;20.10;64.98;94124.19;4212047;28;20040;-59
2023/06/12 04:52:12;;;;;;;12.23;9.40;;;;;;;20.15;64.66;94125.09;4212013;28;20097;-59
2023/06/12 04:54:19;;;;;;;12.40;8.77;;;;;;;20.20;64.66;94132.41;4213314;28;20086;-59
2023/06/12 04:56:21;;;;;;;15.15;9.60;;;;;;;20.24;64.50;94128.22;4206849;28;20474;-60
2023/06/12 04:58:23;;;;;;;11.13;8.88;;;;;;;20.21;64.52;94126.84;4213180;28;20482;-60
2023/06/12 05:00:25;;;;;;;15.13;9.95;;;;;;;20.09;64.48;94123.41;4212687;28;20047;-59
2023/06/12 05:02:27;;;;;;;19.80;10.27;;;;;;;19.78;65.89;94120.00;4212933;28;20059;-61
2023/06/12 05:04:30;;;;;;;17.52;9.63;;;;;;;19.67;66.09;94120.78;4212549;28;20056;-58
2023/06/12 05:06:32;;;;;;;13.88;10.38;;;;;;;19.63;66.93;94131.06;4212704;28;20097;-56
2023/06/12 05:08:36;;;;;;;16.15;9.88;;;;;;;19.55;66.81;94136.72;4211433;28;20048;-60
2023/06/12 05:10:38;;;;;;;;;;;;;;;19.31;67.04;94135.03;4207783;28;20536;-57
2023/06/12 05:12:40;;;;;;;15.52;9.82;;;;;;;19.24;67.70;94130.63;4206082;28;19924;-57
2023/06/12 05:14:43;;;;;;;17.55;9.38;;;;;;;19.27;67.71;94131.22;4212715;28;20091;-59
2023/06/12 05:16:46;;;;;;;10.93;9.77;;;;;;;19.39;67.31;94124.91;4212025;28;20048;-60
2023/06/12 05:18:48;;;;;;;12.73;10.65;;;;;;;19.42;67.39;94129.78;4212072;28;20051;-60
2023/06/12 05:20:50;;;;;;;14.13;10.30;;;;;;;19.39;67.49;94135.53;4212892;28;20048;-61
2023/06/12 05:22:51;;;;;;;14.60;9.70;;;;;;;19.13;68.50;94141.22;4211341;28;20105;-61
2023/06/12 05:24:53;;;;;;;21.02;10.35;;;;;;;19.01;68.63;94141.16;4212651;28;20044;-59
2023/06/12 05:26:55;;;;;;;15.60;9.50;;;;;;;18.94;68.52;94149.22;4213047;28;20129;-56
2023/06/12 05:28:57;;;;;;;14.55;9.73;;;;;;;18.89;68.76;94140.31;4212009;28;20051;-57
2023/06/12 05:30:58;;;;;;;25.33;9.82;;;;;;;18.98;68.90;94138.97;4213067;28;20056;-60
2023/06/12 05:33:00;;;;;;;16.30;9.98;;;;;;;19.09;68.78;94140.84;4212385;28;20097;-56
2023/06/12 05:35:02;;;;;;;22.38;10.23;;;;;;;19.28;68.42;94141.63;4207675;28;20058;-59
2023/06/12 05:37:04;;;;;;;12.40;8.73;;;;;;;19.42;67.56;94144.88;4211677;28;20065;-58
2023/06/12 05:39:06;;;;;;;11.45;8.77;;;;;;;19.50;67.21;94136.59;4212851;28;20155;-59
2023/06/12 05:41:15;;;;;;;14.98;9.32;;;;;;;19.51;67.13;94148.84;4212955;28;20080;-61
2023/06/12 05:43:17;;;;;;;13.50;10.07;;;;;;;19.30;66.77;94144.84;4212157;28;20051;-60
2023/06/12 05:45:19;;;;;;;14.45;8.98;;;;;;;19.11;68.05;94148.59;4209747;28;20131;-60
2023/06/12 05:47:20;;;;;;;16.52;9.10;;;;;;;19.17;67.75;94148.50;4212379;28;20066;-60
2023/06/12 05:49:24;;;;;;;16.20;10.02;;;;;;;18.95;67.97;94155.31;4211846;28;20515;-59
2023/06/12 05:51:29;;;;;;;15.82;9.93;;;;;;;19.02;68.06;94156.06;4208631;28;20091;-60
2023/06/12 05:53:32;;;;;;;16.23;9.82;;;;;;;19.21;68.03;94156.84;4201809;28;20052;-61
2023/06/12 05:55:36;;;;;;;12.73;9.25;;;;;;;19.44;66.91;94156.09;4205969;28;20560;-60
2023/06/12 05:57:38;;;;;;;15.52;10.88;;;;;;;19.62;66.24;94152.56;4211852;28;20561;-60
2023/06/12 05:59:40;;;;;;;48.20;29.58;;;;;;;19.86;67.31;94161.41;4211888;28;20044;-61
2023/06/12 06:01:42;;;;;;;28.73;20.65;;;;;;;20.05;66.43;94157.59;4212286;28;20502;-63
2023/06/12 06:03:45;;;;;;;13.55;10.18;;;;;;;20.23;65.63;94161.19;4209778;28;20087;-60
2023/06/12 06:05:47;;;;;;;12.80;8.93;;;;;;;20.33;64.26;94150.78;4211569;28;20051;-59
2023/06/12 06:07:50;;;;;;;13.02;8.80;;;;;;;20.43;63.69;94152.84;4211185;28;20059;-60
2023/06/12 06:09:52;;;;;;;14.88;9.82;;;;;;;20.56;63.35;94154.44;4212260;28;20044;-59
2023/06/12 06:11:53;;;;;;;14.68;10.35;;;;;;;20.49;62.98;94153.75;4211056;28;20405;-58
2023/06/12 06:13:55;;;;;;;22.17;9.93;;;;;;;20.44;63.42;94152.59;4211557;28;20075;-60
2023/06/12 06:15:57;;;;;;;20.70;10.65;;;;;;;20.33;63.62;94156.09;4212055;28;20051;-60
2023/06/12 06:17:59;;;;;;;18.88;10.70;;;;;;;20.16;64.03;94155.19;4211217;28;20048;-63
2023/06/12 06:20:03;;;;;;;16.40;10.43;;;;;;;20.23;64.34;94150.53;4210574;28;20067;-62
2023/06/12 06:22:06;;;;;;;13.32;9.65;;;;;;;20.39;64.05;94155.16;4210409;28;20051;-62
2023/06/12 06:24:08;;;;;;;15.02;10.30;;;;;;;20.54;63.13;94154.69;4211604;28;20055;-60
2023/06/12 06:26:10;;;;;;;15.70;10.20;;;;;;;20.66;63.21;94152.03;4208964;28;20056;-60
2023/06/12 06:28:12;;;;;;;12.05;9.10;;;;;;;20.68;62.51;94154.47;4211530;28;20063;-61
2023/06/12 06:30:13;;;;;;;11.25;9.02;;;;;;;20.79;62.17;94151.75;4211602;28;20044;-62
2023/06/12 06:32:16;;;;;;;14.93;9.27;;;;;;;20.92;62.04;94152.53;4211213;28;20616;-59
2023/06/12 06:34:18;;;;;;;14.75;9.05;;;;;;;21.04;62.02;94158.66;4210912;28;20044;-58
2023/06/12 06:36:20;;;;;;;15.77;9.52;;;;;;;21.12;61.62;94150.25;4209559;28;20048;-61
2023/06/12 06:38:24;;;;;;;19.98;13.93;;;;;;;21.12;61.45;94152.13;4206928;28;20102;-59
2023/06/12 06:40:26;;;;;;;15.90;11.27;;;;;;;21.20;61.60;94146.41;4208125;28;20614;-58
2023/06/12 06:42:29;;;;;;;14.02;10.88;;;;;;;21.27;60.98;94149.72;4209089;28;20200;-60
2023/06/12 06:44:31;;;;;;;15.95;10.40;;;;;;;21.35;60.69;94156.53;4209227;28;20089;-58
2023/06/12 06:46:33;;;;;;;20.73;10.80;;;;;;;21.46;61.20;94153.03;4205518;28;20051;-60
2023/06/12 06:48:34;;;;;;;14.15;9.75;;;;;;;21.57;61.15;94152.16;4205643;28;20051;-59
2023/06/12 06:50:36;;;;;;;17.20;9.85;;;;;;;21.70;59.90;94158.22;4203993;28;20040;-56
2023/06/12 06:52:38;;;;;;;11.75;8.88;;;;;;;21.78;60.09;94155.97;4210625;28;20109;-57
2023/06/12 06:54:40;;;;;;;17.17;9.98;;;;;;;21.92;59.78;94151.16;4203682;28;20066;-58
2023/06/12 06:56:41;;;;;;;12.80;9.20;;;;;;;22.02;59.42;94153.16;4203353;28;20656;-60
2023/06/12 06:58:43;;;;;;;14.18;9.45;;;;;;;22.09;59.51;94146.59;4211535;28;20566;-60
2023/06/12 07:00:45;;;;;;;13.30;8.98;;;;;;;22.20;58.59;94141.41;4203386;28;20140;-62
2023/06/12 07:02:47;;;;;;;10.82;8.32;;;;;;;22.32;58.63;94139.47;4210068;28;20101;-60
2023/06/12 07:04:50;;;;;;;13.55;9.50;;;;;;;22.33;57.68;94140.28;4208393;28;20074;-62
2023/06/12 07:06:52;;;;;;;15.82;9.77;;;;;;;22.32;58.32;94142.16;4208711;28;20048;-59
2023/06/12 07:08:53;;;;;;;14.00;8.90;;;;;;;22.26;57.06;94143.13;4209984;28;20097;-60
2023/06/12 07:10:55;;;;;;;9.98;8.88;;;;;;;22.15;57.17;94144.00;4210830;28;20055;-60
2023/06/12 07:12:57;;;;;;;10.50;7.85;;;;;;;22.10;57.61;94136.75;4211169;28;20044;-60
2023/06/12 07:14:59;;;;;;;9.18;7.43;;;;;;;22.15;57.80;94142.13;4210657;28;20497;-60
2023/06/12 07:17:01;;;;;;;11.30;7.25;;;;;;;22.33;57.28;94138.44;4211338;28;20408;-60
2023/06/12 07:19:03;;;;;;;8.50;5.78;;;;;;;22.56;55.34;94144.59;4202212;28;20058;-61
2023/06/12 07:21:04;;;;;;;12.35;7.43;;;;;;;22.73;55.89;94144.56;4208486;28;20139;-61
2023/06/12 07:23:06;;;;;;;12.15;6.78;;;;;;;22.65;55.08;94141.28;4198580;28;20442;-59
2023/06/12 07:25:10;;;;;;;15.25;7.05;;;;;;;22.62;55.07;94143.63;4210692;28;20123;-62
2023/06/12 07:27:12;;;;;;;12.05;7.05;;;;;;;22.79;55.38;94141.69;4209402;28;20076;-60
2023/06/12 07:29:14;;;;;;;11.95;6.72;;;;;;;22.95;55.12;94133.84;4209006;28;20465;-59
2023/06/12 07:31:15;;;;;;;10.77;7.05;;;;;;;23.00;55.13;94144.63;4205302;28;20389;-61
2023/06/12 07:33:17;;;;;;;8.68;6.38;;;;;;;23.12;55.30;94139.97;4209495;28;20146;-61
2023/06/12 07:35:20;;;;;;;7.35;5.60;;;;;;;23.18;54.91;94138.97;4200721;28;20060;-63
2023/06/12 07:37:22;;;;;;;10.07;5.28;;;;;;;23.16;53.21;94138.41;4214154;28;20463;-61
2023/06/12 07:39:24;;;;;;;14.70;4.90;;;;;;;23.17;53.34;94140.03;4213106;28;20044;-61
2023/06/12 07:41:27;;;;;;;9.90;5.43;;;;;;;23.23;53.29;94147.06;4211174;28;20052;-61
2023/06/12 07:43:32;;;;;;;12.90;6.05;;;;;;;23.21;52.94;94141.16;4211080;28;20083;-60
2023/06/12 07:45:34;;;;;;;7.07;5.53;;;;;;;23.08;52.68;94144.19;4207593;28;20056;-60
2023/06/12 07:47:35;;;;;;;14.38;6.03;;;;;;;23.08;53.68;94147.69;4208443;28;20050;-62
2023/06/12 07:49:37;;;;;;;13.80;5.80;;;;;;;23.13;53.75;94146.13;4206996;28;20485;-62
2023/06/12 07:51:39;;;;;;;8.23;5.53;;;;;;;23.14;53.95;94142.38;4214165;28;20056;-60
2023/06/12 07:53:41;;;;;;;13.85;5.80;;;;;;;23.22;53.49;94142.75;4212102;28;20068;-62
2023/06/12 07:55:43;;;;;;;9.88;5.75;;;;;;;23.28;53.46;94139.06;4214380;28;20452;-58
2023/06/12 07:57:47;;;;;;;13.48;5.95;;;;;;;23.28;53.60;94149.75;4214150;28;20055;-62
2023/06/12 07:59:48;;;;;;;15.73;6.13;;;;;;;;;;4201489;28;20057;-63
2023/06/12 08:01:52;;;;;;;15.20;6.50;;;;;;;23.41;53.82;94142.41;4213929;28;20454;-60
2023/06/12 08:03:56;;;;;;;11.25;6.30;;;;;;;23.43;53.01;94138.44;4211703;28;20117;-62
2023/06/12 08:05:58;;;;;;;13.13;6.32;;;;;;;23.40;53.24;94152.28;4213323;28;20043;-61
2023/06/12 08:08:04;;;;;;;11.25;5.90;;;;;;;23.40;53.15;94143.47;4213542;28;20074;-60
2023/06/12 08:10:07;;;;;;;10.55;5.78;;;;;;;23.39;53.09;94139.97;4212651;28;20048;-62
2023/06/12 08:12:12;;;;;;;22.60;6.53;;;;;;;23.44;51.54;94139.22;4213632;28;20070;-62
2023/06/12 08:14:14;;;;;;;9.05;6.05;;;;;;;23.42;51.21;94141.34;4211675;28;20087;-62
2023/06/12 08:16:16;;;;;;;7.65;5.20;;;;;;;23.42;51.57;94139.47;4214007;28;20067;-64
2023/06/12 08:18:19;;;;;;;11.60;5.65;;;;;;;23.43;52.07;94134.94;4206291;28;20048;-60
2023/06/12 08:20:21;;;;;;;11.02;5.15;;;;;;;23.43;52.46;94138.44;4196451;28;20051;-62
2023/06/12 08:22:23;;;;;;;10.15;6.07;;;;;;;23.43;52.89;94133.06;4206657;28;20119;-61
2023/06/12 08:24:29;;;;;;;10.82;6.07;;;;;;;23.46;52.43;94137.91;4200530;28;20106;-63
2023/06/12 08:26:31;;;;;;;12.88;5.43;;;;;;;23.55;52.54;94142.81;4203108;28;20052;-61
2023/06/12 08:28:34;;;;;;;15.60;6.07;;;;;;;23.58;52.42;94139.63;4214160;28;20055;-62
2023/06/12 08:30:35;;;;;;;12.40;5.57;;;;;;;23.63;52.68;94145.81;4213534;28;20052;-61
2023/06/12 08:32:37;;;;;;;10.85;5.47;;;;;;;23.58;54.33;94145.78;4209236;28;20052;-60
2023/06/12 08:34:39;;;;;;;8.30;5.78;;;;;;;23.47;55.20;94139.53;4207243;28;20083;-58
2023/06/12 08:36:41;;;;;;;10.68;5.38;;;;;;;23.46;55.95;94145.91;4212761;28;20048;-60
2023/06/12 08:38:43;;;;;;;10.95;5.75;;;;;;;23.34;55.89;94147.13;4202213;28;20058;-64
2023/06/12 08:40:46;;;;;;;9.18;5.78;;;;;;;23.27;56.74;94142.81;4213762;28;20051;-61
2023/06/12 08:42:51;;;;;;;;;;;;;;;23.27;57.57;94150.84;4209874;28;20079;-61
2023/06/12 08:45:05;;;;;;;11.30;6.55;;;;;;;23.25;56.36;94144.94;4202394;28;19927;-59
2023/06/12 08:47:22;;;;;;;17.48;9.98;;;;;;;23.11;56.67;94146.38;4206708;28;20040;-59
2023/06/12 08:49:25;;;;;;;13.93;7.40;;;;;;;23.05;56.47;94152.72;4211013;28;20054;-58
2023/06/12 08:51:28;;;;;;;10.63;6.85;;;;;;;22.99;56.80;94148.34;4210587;28;20040;-60
2023/06/12 08:53:30;;;;;;;11.35;6.47;;;;;;;23.03;57.80;94149.47;4203054;28;20060;-57
2023/06/12 08:55:39;;;;;;;8.65;5.97;;;;;;;23.00;57.90;94156.13;4207155;28;20051;-59
2023/06/12 08:57:43;;;;;;;11.10;6.38;;;;;;;22.93;58.30;94147.50;4210702;28;20524;-62
2023/06/12 08:59:45;;;;;;;9.45;6.18;;;;;;;22.90;58.42;94151.44;4205596;28;20135;-61
2023/06/12 09:01:53;;;;;;;11.18;5.40;;;;;;;22.92;58.84;94153.06;4212575;28;20480;-60
2023/06/12 09:04:26;;;;;;;9.13;6.15;;;;;;;22.84;58.67;94151.63;4200310;28;20044;-62
2023/06/12 09:06:34;;;;;;;9.27;5.75;;;;;;;22.83;58.42;94150.84;4210270;28;20048;-59
2023/06/12 09:08:38;;;;;;;10.25;5.55;;;;;;;22.83;58.56;94155.38;4211629;28;20047;-61
2023/06/12 09:10:40;;;;;;;9.88;5.72;;;;;;;22.82;58.68;94143.88;4213095;28;20052;-60
2023/06/12 09:12:43;;;;;;;9.02;6.10;;;;;;;22.82;58.69;94154.56;4213180;28;20082;-59
2023/06/12 09:14:45;;;;;;;;;;;;;;;22.81;58.42;94146.78;4212889;28;20052;-60
2023/06/12 09:16:47;;;;;;;14.52;8.65;;;;;;;22.82;59.25;94148.41;4212401;28;20324;-61
2023/06/12 09:18:53;;;;;;;20.50;13.55;;;;;;;22.73;59.85;94142.69;4210513;28;20051;-61
2023/06/12 09:20:55;;;;;;;17.38;11.88;;;;;;;22.76;59.81;94142.22;4212731;28;20054;-58
2023/06/12 09:23:00;;;;;;;17.83;10.98;;;;;;;22.74;59.55;94138.97;4211458;28;20135;-61
2023/06/12 09:25:05;;;;;;;11.48;7.55;;;;;;;22.71;59.14;94136.78;4200883;28;20455;-61
2023/06/12 09:27:07;;;;;;;14.98;7.90;;;;;;;22.74;59.70;94138.97;4210368;28;20094;-60
2023/06/12 09:29:09;;;;;;;13.75;7.43;;;;;;;22.72;59.04;94130.41;4212266;28;20047;-59
2023/06/12 09:31:11;;;;;;;12.85;7.28;;;;;;;22.73;59.39;94132.00;4213397;28;20561;-59
2023/06/12 09:33:13;;;;;;;12.05;6.60;;;;;;;22.69;60.11;94129.03;4212789;28;20614;-60
2023/06/12 09:35:16;;;;;;;10.45;5.88;;;;;;;22.72;60.77;94137.63;4209786;28;20048;-61